Time;durP1;ratioP1;P1;durP2;ratioP2;P2;SDS_P1;SDS_P2;PMS_P1;PMS_P2;Temp;Humidity;BMP_temperature;BMP_pressure;BME280_temperature;BME280_humidity;BME280_pressure;Samples;Min_cycle;Max_cycle;Signal;HPM_P1;HPM_P2
2021/05/26 00:01:07;;;;;;;2.42;0.60;;;22.60;39.10;;;;;;5011928;28;20400;-63
2021/05/26 00:03:34;;;;;;;1.23;0.50;;;22.60;39.00;;;;;;5012069;28;20381;-62
2021/05/26 00:05:59;;;;;;;1.23;0.60;;;22.60;38.90;;;;;;5012345;28;20804;-63
2021/05/26 00:08:31;;;;;;;0.88;0.40;;;22.70;38.90;;;;;;5012413;28;20400;-63
2021/05/26 00:10:58;;;;;;;3.28;0.57;;;22.70;38.90;;;;;;5011861;28;20492;-60
2021/05/26 00:13:25;;;;;;;1.77;0.40;;;22.70;38.90;;;;;;5011593;28;20392;-63
2021/05/26 00:15:51;;;;;;;2.10;0.47;;;22.70;38.80;;;;;;5012256;28;20395;-62
2021/05/26 00:18:17;;;;;;;1.08;0.40;;;22.70;38.80;;;;;;5012277;28;20389;-63
2021/05/26 00:20:44;;;;;;;1.60;0.57;;;22.70;38.80;;;;;;5012150;28;20393;-62
2021/05/26 00:23:10;;;;;;;1.10;0.45;;;22.70;38.70;;;;;;5011576;28;20879;-62
2021/05/26 00:25:36;;;;;;;1.30;0.30;;;22.70;38.70;;;;;;5012080;28;20409;-62
2021/05/26 00:28:02;;;;;;;1.05;0.40;;;22.70;38.70;;;;;;5012110;28;20415;-63
2021/05/26 00:30:32;;;;;;;1.00;0.40;;;22.70;38.60;;;;;;5012100;28;20380;-63
2021/05/26 00:32:58;;;;;;;1.08;0.43;;;22.70;38.60;;;;;;5012035;28;20411;-62
2021/05/26 00:35:24;;;;;;;0.82;0.40;;;22.70;38.60;;;;;;5011619;28;20400;-63
2021/05/26 00:37:50;;;;;;;0.95;0.40;;;22.70;38.60;;;;;;5011850;28;20903;-63
2021/05/26 00:40:16;;;;;;;1.10;0.50;;;22.70;38.50;;;;;;5011957;28;20492;-62
2021/05/26 00:42:42;;;;;;;1.70;0.50;;;22.70;38.60;;;;;;5011765;28;20889;-62
2021/05/26 00:45:08;;;;;;;1.00;0.40;;;22.70;38.50;;;;;;5011592;28;20392;-63
2021/05/26 00:47:42;;;;;;;1.10;0.40;;;22.70;38.50;;;;;;5011684;28;20877;-63
2021/05/26 00:50:11;;;;;;;0.70;0.40;;;22.70;38.50;;;;;;5011862;28;20857;-63
2021/05/26 00:52:37;;;;;;;0.60;0.38;;;22.70;38.40;;;;;;5011703;28;20780;-63
2021/05/26 00:55:05;;;;;;;1.05;0.32;;;22.60;38.40;;;;;;5011741;28;20389;-63
2021/05/26 00:57:31;;;;;;;1.15;0.60;;;22.70;38.40;;;;;;5011277;28;21298;-62
2021/05/26 00:59:56;;;;;;;0.80;0.40;;;22.70;38.40;;;;;;5011693;28;20428;-62
2021/05/26 01:02:22;;;;;;;0.82;0.32;;;22.60;38.30;;;;;;5011703;28;20400;-63
2021/05/26 01:04:47;;;;;;;0.60;0.30;;;22.70;38.40;;;;;;5011681;28;20401;-63
2021/05/26 01:07:13;;;;;;;0.93;0.47;;;22.60;38.30;;;;;;5011028;28;20459;-62
2021/05/26 01:09:39;;;;;;;1.00;0.40;;;22.70;38.30;;;;;;5011689;28;20492;-62
2021/05/26 01:12:05;;;;;;;1.02;0.32;;;22.70;38.30;;;;;;5011627;28;20392;-63
2021/05/26 01:14:31;;;;;;;0.80;0.30;;;22.70;38.30;;;;;;5011737;28;20393;-63
2021/05/26 01:16:57;;;;;;;0.80;0.30;;;22.60;38.20;;;;;;5011534;28;20903;-62
2021/05/26 01:19:22;;;;;;;0.53;0.30;;;22.70;38.30;;;;;;5011152;28;20442;-63
2021/05/26 01:21:52;;;;;;;0.85;0.38;;;22.60;38.20;;;;;;5011700;28;20401;-63
2021/05/26 01:24:18;;;;;;;0.85;0.50;;;22.70;38.20;;;;;;5014960;28;20484;-62
2021/05/26 01:26:45;;;;;;;0.73;0.30;;;22.70;38.20;;;;;;5015169;28;20507;-63
2021/05/26 01:29:11;;;;;;;0.73;0.30;;;22.60;38.10;;;;;;5015235;28;20396;-63
2021/05/26 01:31:36;;;;;;;1.00;0.40;;;22.60;38.10;;;;;;5015072;28;20798;-63
2021/05/26 01:34:03;;;;;;;0.87;0.40;;;22.60;38.10;;;;;;5015088;28;20397;-63
2021/05/26 01:36:31;;;;;;;0.85;0.40;;;22.60;38.10;;;;;;5015102;28;20404;-63
2021/05/26 01:38:57;;;;;;;0.80;0.30;;;22.60;38.10;;;;;;5015317;28;20392;-63
2021/05/26 01:41:23;;;;;;;0.50;0.30;;;22.60;38.10;;;;;;5014674;28;20388;-63
2021/05/26 01:43:48;;;;;;;0.68;0.30;;;22.60;38.10;;;;;;5014877;28;20409;-63
2021/05/26 01:46:16;;;;;;;1.00;0.40;;;22.60;38.10;;;;;;5014798;28;20784;-63
2021/05/26 01:48:48;;;;;;;0.90;0.40;;;22.60;38.00;;;;;;5013818;28;20389;-62
2021/05/26 01:51:14;;;;;;;0.95;0.40;;;22.60;38.00;;;;;;5014519;28;20392;-59
2021/05/26 01:53:40;;;;;;;0.70;0.30;;;22.60;38.10;;;;;;5014951;28;20923;-62
2021/05/26 01:56:17;;;;;;;0.93;0.40;;;22.60;38.00;;;;;;5014757;28;20393;-63
2021/05/26 01:58:43;;;;;;;0.80;0.40;;;22.60;38.00;;;;;;5014783;28;20407;-63
2021/05/26 02:01:10;;;;;;;0.60;0.30;;;22.60;38.00;;;;;;5014659;28;20951;-62
2021/05/26 02:03:42;;;;;;;1.70;0.45;;;22.60;38.00;;;;;;5014659;28;20751;-62
2021/05/26 02:06:08;;;;;;;0.50;0.30;;;22.60;38.00;;;;;;5014530;28;20424;-63
2021/05/26 02:08:34;;;;;;;0.70;0.33;;;22.60;38.00;;;;;;5014649;28;20385;-63
2021/05/26 02:13:45;;;;;;;0.60;0.30;;;22.50;37.90;;;;;;5014841;28;20392;-62
2021/05/26 02:16:10;;;;;;;1.00;0.40;;;22.50;37.90;;;;;;5014376;28;20409;-63
2021/05/26 02:18:36;;;;;;;0.70;0.30;;;22.60;38.00;;;;;;5014474;28;20784;-63
2021/05/26 02:21:02;;;;;;;0.90;0.40;;;22.50;37.90;;;;;;5014124;28;20884;-62
2021/05/26 02:23:27;;;;;;;1.00;0.38;;;22.50;37.90;;;;;;5013882;28;20385;-63
2021/05/26 02:25:53;;;;;;;1.07;0.40;;;22.50;37.90;;;;;;5014146;28;20420;-63
2021/05/26 02:28:18;;;;;;;0.80;0.32;;;22.50;37.90;;;;;;5014229;28;20389;-63
2021/05/26 02:30:44;;;;;;;1.10;0.40;;;22.50;37.90;;;;;;5014147;28;20397;-62
2021/05/26 02:33:09;;;;;;;1.13;0.47;;;22.50;37.90;;;;;;5014027;28;20758;-62
2021/05/26 02:35:35;;;;;;;0.60;0.30;;;22.50;37.80;;;;;;5013569;28;20404;-62
2021/05/26 02:38:01;;;;;;;0.83;0.30;;;22.50;37.80;;;;;;5013339;28;20435;-63
2021/05/26 02:40:26;;;;;;;1.17;0.40;;;22.50;37.80;;;;;;5013744;28;20442;-63
2021/05/26 02:42:52;;;;;;;0.45;0.30;;;22.50;37.80;;;;;;5013645;28;20405;-62
2021/05/26 02:45:18;;;;;;;0.60;0.40;;;22.50;37.80;;;;;;5013341;28;20404;-62
2021/05/26 02:47:43;;;;;;;1.00;0.40;;;22.50;37.80;;;;;;5013834;28;20389;-62
2021/05/26 02:50:16;;;;;;;1.10;0.30;;;22.50;37.80;;;;;;5013562;28;20385;-62
2021/05/26 02:52:44;;;;;;;0.70;0.32;;;22.50;37.80;;;;;;5013795;28;20400;-63
2021/05/26 02:55:11;;;;;;;0.88;0.30;;;22.40;37.80;;;;;;5013643;28;20768;-63
2021/05/26 02:57:36;;;;;;;1.00;0.30;;;22.40;37.80;;;;;;5011835;28;20393;-63
2021/05/26 03:00:05;;;;;;;0.63;0.40;;;22.40;37.80;;;;;;5013622;28;20396;-63
2021/05/26 03:02:31;;;;;;;0.70;0.30;;;22.40;37.80;;;;;;5013522;28;20400;-62
2021/05/26 03:04:56;;;;;;;0.70;0.40;;;22.40;37.80;;;;;;5013532;28;20396;-62
2021/05/26 03:07:22;;;;;;;0.77;0.40;;;22.40;37.90;;;;;;5012903;28;20530;-63
2021/05/26 03:09:47;;;;;;;0.80;0.30;;;22.40;37.90;;;;;;5013402;28;20397;-62
2021/05/26 03:12:13;;;;;;;3.43;0.40;;;22.30;38.50;;;;;;5013309;28;20857;-62
2021/05/26 03:14:39;;;;;;;2.03;0.47;;;22.40;39.20;;;;;;5013379;28;20389;-63
2021/05/26 03:17:04;;;;;;;1.10;0.30;;;22.40;39.10;;;;;;5013262;28;20451;-63
2021/05/26 03:19:30;;;;;;;2.05;0.55;;;22.50;39.20;;;;;;5012767;28;20483;-63
2021/05/26 03:21:56;;;;;;;1.57;0.40;;;22.50;38.90;;;;;;5013387;28;20400;-63
2021/05/26 03:24:22;;;;;;;2.35;0.75;;;22.50;38.80;;;;;;4900678;28;20781;-63
2021/05/26 03:26:47;;;;;;;1.10;0.50;;;22.50;39.30;;;;;;5012134;28;20831;-63
2021/05/26 03:29:13;;;;;;;0.90;0.40;;;22.50;39.20;;;;;;5013090;28;20385;-64
2021/05/26 03:31:39;;;;;;;2.05;0.50;;;22.50;39.30;;;;;;5012532;28;20407;-62
2021/05/26 03:34:05;;;;;;;2.10;0.40;;;22.60;39.20;;;;;;5012895;28;20479;-63
2021/05/26 03:36:30;;;;;;;0.82;0.40;;;22.60;39.70;;;;;;5012887;28;20392;-60
2021/05/26 03:38:56;;;;;;;1.63;0.30;;;22.60;39.50;;;;;;5012774;28;20939;-62
2021/05/26 03:41:22;;;;;;;2.88;0.40;;;22.60;39.30;;;;;;5012366;28;20397;-62
2021/05/26 03:43:47;;;;;;;4.83;0.50;;;22.60;39.70;;;;;;5012629;28;20750;-63
2021/05/26 03:46:13;;;;;;;3.15;0.40;;;22.60;39.60;;;;;;5011920;28;20412;-63
2021/05/26 03:48:39;;;;;;;4.97;0.57;;;22.70;39.60;;;;;;5012526;28;20407;-63
2021/05/26 03:51:05;;;;;;;3.67;0.60;;;22.70;40.70;;;;;;5012519;28;20876;-62
2021/05/26 03:53:31;;;;;;;5.18;0.55;;;22.70;40.60;;;;;;5012061;28;20393;-62
2021/05/26 03:55:57;;;;;;;3.22;0.47;;;22.80;40.50;;;;;;5012448;28;20436;-63
2021/05/26 03:58:23;;;;;;;4.32;0.60;;;22.80;39.80;;;;;;5012134;28;20522;-63
2021/05/26 04:00:48;;;;;;;2.20;0.50;;;22.70;39.90;;;;;;5011610;28;20467;-62
2021/05/26 04:03:14;;;;;;;6.63;0.70;;;22.70;39.70;;;;;;5010816;28;20400;-66
2021/05/26 04:05:41;;;;;;;1.80;0.40;;;22.70;39.00;;;;;;5011899;28;20420;-62
2021/05/26 04:08:06;;;;;;;6.97;0.63;;;22.70;39.20;;;;;;5012308;28;20388;-63
2021/05/26 04:10:32;;;;;;;10.53;0.73;;;22.60;38.80;;;;;;5012363;28;20397;-63
2021/05/26 04:12:57;;;;;;;7.82;1.10;;;22.70;38.70;;;;;;5012361;28;20737;-63
2021/05/26 04:15:23;;;;;;;7.00;1.13;;;22.60;38.50;;;;;;5011780;28;20524;-62
2021/05/26 04:17:49;;;;;;;4.13;1.00;;;22.60;38.40;;;;;;5012235;28;20887;-61
2021/05/26 04:20:14;;;;;;;16.40;1.20;;;22.70;38.30;;;;;;5012257;28;20393;-63
2021/05/26 04:22:40;;;;;;;4.18;1.10;;;22.70;38.30;;;;;;5011697;28;20396;-62
2021/05/26 04:25:07;;;;;;;2.47;0.40;;;22.70;38.30;;;;;;5011984;28;20393;-62
2021/05/26 04:27:33;;;;;;;4.13;0.50;;;22.70;38.20;;;;;;5011416;28;20400;-63
2021/05/26 04:30:00;;;;;;;2.15;0.40;;;22.60;38.40;;;;;;5012151;28;20389;-63
2021/05/26 04:32:26;;;;;;;4.28;1.00;;;22.70;38.50;;;;;;5011977;28;20431;-62
2021/05/26 04:34:51;;;;;;;3.67;0.57;;;22.70;38.70;;;;;;5011944;28;20417;-61
2021/05/26 04:37:17;;;;;;;2.88;0.85;;;22.80;38.70;;;;;;5011869;28;20483;-63
2021/05/26 04:39:44;;;;;;;3.63;0.50;;;22.80;38.90;;;;;;5011449;28;21240;-62
2021/05/26 04:42:10;;;;;;;4.75;0.50;;;22.80;38.80;;;;;;5011763;28;20393;-61
2021/05/26 04:44:35;;;;;;;4.05;0.50;;;22.80;39.10;;;;;;5011862;28;20450;-63
2021/05/26 04:47:01;;;;;;;5.50;1.00;;;22.80;38.30;;;;;;5011630;28;20427;-63
2021/05/26 04:49:27;;;;;;;3.28;0.60;;;22.80;38.50;;;;;;5011607;28;20397;-63
2021/05/26 04:51:53;;;;;;;2.33;0.40;;;22.70;38.30;;;;;;5011529;28;20959;-63
2021/05/26 04:54:18;;;;;;;2.13;0.55;;;22.70;38.30;;;;;;5011770;28;20401;-63
2021/05/26 04:56:44;;;;;;;2.25;0.30;;;22.70;38.10;;;;;;5012487;28;20389;-63
2021/05/26 04:59:11;;;;;;;4.07;0.50;;;22.70;38.20;;;;;;5015817;28;20407;-62
2021/05/26 05:01:37;;;;;;;1.63;0.30;;;22.70;38.00;;;;;;5015358;28;20393;-63
2021/05/26 05:04:03;;;;;;;2.97;0.40;;;22.70;37.80;;;;;;5015758;28;20749;-63
2021/05/26 05:06:29;;;;;;;1.52;0.40;;;22.70;37.80;;;;;;5015663;28;20431;-63
2021/05/26 05:08:55;;;;;;;2.00;0.40;;;22.80;37.80;;;;;;5015678;28;20381;-62
2021/05/26 05:11:20;;;;;;;2.23;0.30;;;22.70;37.60;;;;;;5015523;28;20392;-61
2021/05/26 05:13:47;;;;;;;2.85;0.50;;;22.80;37.60;;;;;;5015391;28;20500;-63
2021/05/26 05:16:12;;;;;;;2.10;0.40;;;22.70;37.50;;;;;;5015623;28;20962;-63
2021/05/26 05:18:38;;;;;;;1.73;0.50;;;22.80;37.40;;;;;;5015517;28;20381;-62
2021/05/26 05:21:04;;;;;;;2.40;0.40;;;22.80;37.40;;;;;;5015513;28;20396;-63
2021/05/26 05:23:30;;;;;;;3.25;0.43;;;22.80;37.30;;;;;;5014988;28;20435;-63
2021/05/26 05:25:56;;;;;;;2.40;0.30;;;22.80;37.20;;;;;;5015053;28;20412;-63
2021/05/26 05:28:21;;;;;;;1.90;0.47;;;22.80;37.20;;;;;;5015394;28;20748;-62
2021/05/26 05:30:47;;;;;;;1.13;0.30;;;22.80;37.20;;;;;;5015326;28;20458;-63
2021/05/26 05:33:13;;;;;;;0.85;0.40;;;22.80;37.10;;;;;;5015267;28;20484;-62
2021/05/26 05:35:38;;;;;;;2.10;0.50;;;22.90;37.00;;;;;;5014714;28;20448;-63
2021/05/26 05:38:04;;;;;;;0.80;0.40;;;22.90;37.00;;;;;;5015153;28;20392;-62
2021/05/26 05:40:30;;;;;;;1.73;0.50;;;22.90;36.90;;;;;;5015101;28;20539;-62
2021/05/26 05:42:55;;;;;;;0.77;0.30;;;22.90;36.90;;;;;;5013687;28;20417;-63
2021/05/26 05:45:21;;;;;;;1.80;0.30;;;22.90;36.80;;;;;;5015073;28;20393;-64
2021/05/26 05:47:47;;;;;;;2.03;0.47;;;22.90;36.80;;;;;;5014505;28;20419;-64
2021/05/26 05:50:16;;;;;;;0.88;0.30;;;22.90;36.80;;;;;;5014969;28;20404;-63
2021/05/26 05:52:43;;;;;;;0.95;0.40;;;22.90;36.70;;;;;;5015183;28;20400;-63
2021/05/26 05:55:10;;;;;;;1.25;0.40;;;23.00;36.70;;;;;;5014810;28;20462;-63
2021/05/26 05:57:38;;;;;;;0.88;0.40;;;23.00;36.70;;;;;;5014317;28;20393;-63
2021/05/26 06:00:05;;;;;;;1.40;0.40;;;23.00;36.60;;;;;;5014666;28;20869;-63
2021/05/26 06:02:31;;;;;;;0.93;0.20;;;23.00;36.70;;;;;;5014853;28;20488;-62
2021/05/26 06:04:57;;;;;;;1.35;0.28;;;23.00;36.70;;;;;;5014593;28;20940;-63
2021/05/26 06:07:22;;;;;;;1.38;0.30;;;23.00;36.70;;;;;;5014247;28;20428;-62
2021/05/26 06:09:48;;;;;;;2.13;0.40;;;23.10;36.70;;;;;;5012898;28;21182;-63
2021/05/26 06:12:14;;;;;;;1.80;0.40;;;23.00;36.60;;;;;;5014624;28;20415;-63
2021/05/26 06:14:39;;;;;;;1.77;0.30;;;23.10;36.60;;;;;;5014511;28;20389;-63
2021/05/26 06:17:05;;;;;;;2.20;0.30;;;23.10;36.60;;;;;;5014468;28;20443;-63
2021/05/26 06:19:31;;;;;;;1.27;0.30;;;23.10;36.60;;;;;;5013962;28;20393;-63
2021/05/26 06:21:56;;;;;;;1.40;0.30;;;23.10;36.60;;;;;;5014386;28;20397;-62
2021/05/26 06:24:22;;;;;;;1.40;0.40;;;23.10;36.60;;;;;;5014347;28;20912;-63
2021/05/26 06:26:47;;;;;;;0.80;0.20;;;23.10;36.50;;;;;;5013849;28;20429;-62
2021/05/26 06:29:13;;;;;;;0.82;0.30;;;23.10;36.40;;;;;;5014322;28;20741;-63
2021/05/26 06:31:39;;;;;;;1.10;0.30;;;23.10;36.40;;;;;;5013863;28;20873;-62
2021/05/26 06:34:04;;;;;;;1.23;0.40;;;23.10;36.30;;;;;;5014155;28;20385;-63
2021/05/26 06:36:33;;;;;;;1.03;0.40;;;23.10;36.30;;;;;;5014129;28;20405;-62
2021/05/26 06:39:02;;;;;;;1.20;0.38;;;23.10;36.30;;;;;;5014024;28;20468;-63
2021/05/26 06:41:28;;;;;;;1.10;0.40;;;23.20;36.70;;;;;;5013674;28;20756;-64
2021/05/26 06:43:54;;;;;;;0.77;0.30;;;23.10;36.30;;;;;;5013513;28;20405;-62
2021/05/26 06:46:19;;;;;;;0.90;0.30;;;23.20;36.30;;;;;;5013853;28;20412;-64
2021/05/26 06:48:45;;;;;;;0.80;0.30;;;23.20;36.40;;;;;;5013949;28;20385;-62
2021/05/26 06:51:10;;;;;;;0.70;0.30;;;23.20;36.30;;;;;;5013827;28;20487;-63
2021/05/26 06:53:36;;;;;;;0.67;0.33;;;23.20;36.30;;;;;;5013345;28;20412;-63
2021/05/26 06:56:02;;;;;;;1.10;0.30;;;23.20;36.30;;;;;;5012417;28;20404;-63
2021/05/26 06:58:28;;;;;;;0.93;0.33;;;23.20;36.30;;;;;;5013744;28;20389;-62
2021/05/26 07:00:53;;;;;;;0.90;0.32;;;23.30;36.30;;;;;;5013598;28;20433;-62
2021/05/26 07:03:19;;;;;;;0.80;0.30;;;23.30;36.30;;;;;;5013557;28;20392;-62
2021/05/26 07:05:44;;;;;;;0.80;0.30;;;23.30;36.40;;;;;;5012958;28;20404;-63
2021/05/26 07:08:10;;;;;;;0.70;0.30;;;23.30;36.30;;;;;;5013449;28;20389;-63
2021/05/26 07:10:36;;;;;;;0.73;0.40;;;23.30;36.30;;;;;;5013436;28;20459;-63
2021/05/26 07:13:01;;;;;;;0.70;0.30;;;23.30;36.30;;;;;;5013337;28;20405;-62
2021/05/26 07:15:27;;;;;;;0.93;0.38;;;23.30;36.30;;;;;;5013365;28;20385;-59
2021/05/26 07:17:55;;;;;;;0.83;0.30;;;23.30;36.30;;;;;;5011763;28;20419;-63
2021/05/26 07:20:21;;;;;;;0.77;0.22;;;23.30;36.10;;;;;;5012475;28;20442;-63
2021/05/26 07:22:47;;;;;;;1.00;0.40;;;23.30;36.20;;;;;;5011943;28;20795;-62
2021/05/26 07:25:13;;;;;;;0.68;0.30;;;23.30;36.20;;;;;;5013028;28;20476;-63
2021/05/26 07:27:39;;;;;;;0.95;0.38;;;23.30;36.20;;;;;;5012378;28;20427;-62
2021/05/26 07:30:06;;;;;;;1.00;0.40;;;23.30;36.20;;;;;;5013048;28;20777;-63
2021/05/26 07:32:31;;;;;;;0.90;0.40;;;23.40;36.30;;;;;;5012952;28;20427;-62
2021/05/26 07:34:57;;;;;;;0.95;0.40;;;23.30;36.20;;;;;;5012971;28;21081;-62
2021/05/26 07:37:23;;;;;;;1.07;0.40;;;23.40;36.20;;;;;;5012952;28;20405;-62
2021/05/26 07:39:50;;;;;;;1.08;0.40;;;23.40;36.20;;;;;;5012477;28;20401;-63
2021/05/26 07:42:17;;;;;;;1.27;0.30;;;23.40;36.20;;;;;;5012775;28;20562;-62
2021/05/26 07:44:42;;;;;;;0.90;0.40;;;23.40;36.20;;;;;;5012986;28;20404;-63
2021/05/26 07:47:08;;;;;;;1.23;0.40;;;23.40;36.20;;;;;;5012646;28;20723;-63
2021/05/26 07:49:34;;;;;;;0.80;0.20;;;23.40;36.10;;;;;;5012521;28;20389;-64
2021/05/26 07:52:06;;;;;;;0.95;0.50;;;23.40;36.20;;;;;;5012717;28;20749;-63
2021/05/26 07:54:32;;;;;;;1.35;0.32;;;23.40;36.20;;;;;;5012509;28;20396;-63
2021/05/26 07:56:58;;;;;;;0.70;0.30;;;23.40;36.10;;;;;;5012604;28;20397;-63
2021/05/26 07:59:25;;;;;;;0.52;0.30;;;23.40;36.10;;;;;;5012076;28;20392;-63
2021/05/26 08:01:50;;;;;;;1.23;0.40;;;23.40;36.00;;;;;;5012494;28;20393;-63
2021/05/26 08:04:17;;;;;;;0.65;0.40;;;23.40;36.10;;;;;;5012401;28;20800;-63
2021/05/26 08:06:42;;;;;;;0.60;0.30;;;23.40;36.00;;;;;;5012522;28;20912;-63
2021/05/26 08:09:10;;;;;;;0.60;0.20;;;23.40;36.00;;;;;;5011561;28;20417;-64
2021/05/26 08:11:36;;;;;;;0.80;0.30;;;23.40;36.00;;;;;;5012221;28;20423;-60
2021/05/26 08:14:02;;;;;;;0.60;0.30;;;23.40;36.00;;;;;;5012234;28;20432;-63
2021/05/26 08:16:28;;;;;;;0.50;0.30;;;23.40;36.00;;;;;;5010988;28;20393;-63
2021/05/26 08:18:54;;;;;;;1.13;0.30;;;23.40;36.00;;;;;;5012186;28;20389;-64
2021/05/26 08:21:20;;;;;;;1.50;0.40;;;23.40;35.90;;;;;;5009389;28;20893;-64
2021/05/26 08:23:46;;;;;;;0.60;0.30;;;23.40;35.90;;;;;;5008513;28;20438;-61
2021/05/26 08:26:23;;;;;;;0.50;0.20;;;23.40;35.90;;;;;;5011678;28;20471;-63
2021/05/26 08:28:50;;;;;;;1.10;0.30;;;23.50;35.90;;;;;;5010287;28;20891;-62
2021/05/26 08:31:16;;;;;;;0.50;0.20;;;23.50;35.90;;;;;;5010463;28;20408;-59
2021/05/26 08:33:42;;;;;;;0.57;0.30;;;23.50;35.80;;;;;;5010102;28;20842;-63
2021/05/26 08:36:09;;;;;;;0.50;0.30;;;23.40;35.80;;;;;;5011651;28;20427;-62
2021/05/26 08:38:35;;;;;;;0.90;0.40;;;23.50;35.80;;;;;;5009574;28;20401;-60
2021/05/26 08:41:09;;;;;;;0.82;0.40;;;23.50;35.80;;;;;;5011712;28;20769;-63
2021/05/26 08:43:37;;;;;;;0.80;0.30;;;23.50;35.70;;;;;;5011048;28;20397;-63
2021/05/26 08:46:04;;;;;;;0.82;0.40;;;23.50;35.70;;;;;;5011754;28;20424;-63
2021/05/26 08:48:31;;;;;;;1.05;0.30;;;23.50;35.70;;;;;;5011899;28;20389;-63
2021/05/26 08:50:58;;;;;;;0.70;0.40;;;23.50;35.60;;;;;;5011855;28;20381;-63
2021/05/26 08:53:24;;;;;;;0.60;0.27;;;23.50;35.60;;;;;;5011837;28;20433;-63
2021/05/26 08:55:50;;;;;;;0.95;0.30;;;23.50;35.60;;;;;;5010836;28;20400;-63
2021/05/26 08:58:16;;;;;;;2.05;0.32;;;23.50;35.60;;;;;;5009354;28;20415;-64
2021/05/26 09:00:44;;;;;;;0.57;0.20;;;23.50;36.00;;;;;;5009248;28;20397;-59
2021/05/26 09:03:10;;;;;;;1.60;0.30;;;23.50;36.20;;;;;;5009130;28;20397;-63
2021/05/26 09:05:36;;;;;;;1.75;0.30;;;23.50;36.30;;;;;;5008846;28;20476;-62
2021/05/26 09:08:22;;;;;;;1.58;0.30;;;23.50;36.40;;;;;;5008897;28;20887;-59
2021/05/26 09:11:02;;;;;;;1.88;0.30;;;23.50;36.50;;;;;;5007954;28;20389;-64
2021/05/26 09:13:39;;;;;;;1.67;0.30;;;23.50;36.40;;;;;;5007960;28;20523;-64
2021/05/26 09:16:25;;;;;;;1.27;0.27;;;23.50;36.50;;;;;;5007339;28;20482;-64
2021/05/26 09:18:55;;;;;;;2.05;0.40;;;23.50;36.50;;;;;;5007547;28;20412;-64
2021/05/26 09:21:50;;;;;;;1.42;0.30;;;23.50;36.50;;;;;;5007764;28;20894;-64
2021/05/26 09:24:18;;;;;;;2.10;0.30;;;23.50;36.60;;;;;;5011281;28;20389;-63
2021/05/26 09:26:49;;;;;;;0.70;0.20;;;23.50;36.50;;;;;;5011514;28;20413;-62
2021/05/26 09:29:15;;;;;;;1.08;0.30;;;23.50;36.50;;;;;;5011596;28;20392;-63
2021/05/26 09:31:41;;;;;;;1.00;0.30;;;23.50;36.50;;;;;;5010604;28;20424;-61
2021/05/26 09:34:07;;;;;;;0.85;0.30;;;23.50;36.50;;;;;;5011340;28;21252;-63
2021/05/26 09:36:32;;;;;;;0.93;0.30;;;23.50;36.50;;;;;;5011559;28;20443;-62
2021/05/26 09:39:04;;;;;;;1.40;0.30;;;23.50;36.50;;;;;;5010508;28;20888;-63
2021/05/26 09:41:35;;;;;;;1.02;0.30;;;23.50;36.60;;;;;;5011486;28;20400;-63
2021/05/26 09:44:09;;;;;;;0.90;0.30;;;23.40;36.60;;;;;;5013339;28;20479;-61
2021/05/26 09:46:39;;;;;;;1.15;0.30;;;23.50;36.60;;;;;;5014048;28;20896;-63
2021/05/26 09:49:28;;;;;;;0.82;0.30;;;23.40;36.50;;;;;;5014999;28;20395;-63
2021/05/26 09:51:55;;;;;;;0.70;0.20;;;23.50;36.60;;;;;;5014467;28;20385;-63
2021/05/26 09:54:32;;;;;;;1.07;0.30;;;23.40;36.60;;;;;;5014873;28;20880;-63
2021/05/26 09:57:07;;;;;;;0.80;0.20;;;23.50;36.50;;;;;;5014306;28;20392;-63
2021/05/26 09:59:34;;;;;;;1.02;0.30;;;23.40;36.60;;;;;;5015056;28;20411;-64
2021/05/26 10:02:01;;;;;;;0.60;0.30;;;23.40;36.80;;;;;;5014472;28;20393;-63
2021/05/26 10:04:26;;;;;;;0.90;0.30;;;23.40;36.70;;;;;;5014768;28;20389;-63
2021/05/26 10:06:53;;;;;;;0.65;0.30;;;23.40;36.70;;;;;;5014794;28;20490;-63
2021/05/26 10:09:24;;;;;;;0.88;0.30;;;23.40;36.60;;;;;;5013872;28;20400;-60
2021/05/26 10:11:55;;;;;;;0.57;0.20;;;23.40;36.50;;;;;;5013890;28;20432;-62
2021/05/26 10:14:23;;;;;;;0.82;0.30;;;23.40;36.50;;;;;;5014557;28;20442;-63
2021/05/26 10:16:51;;;;;;;1.15;0.30;;;23.40;36.60;;;;;;5013239;28;20496;-62
2021/05/26 10:19:17;;;;;;;0.73;0.30;;;23.50;36.50;;;;;;5014399;28;20396;-63
2021/05/26 10:21:47;;;;;;;0.60;0.30;;;23.40;36.60;;;;;;5014046;28;20400;-60
2021/05/26 10:24:19;;;;;;;0.50;0.20;;;23.40;36.50;;;;;;5013739;28;20749;-62
2021/05/26 10:26:48;;;;;;;0.80;0.30;;;23.40;36.50;;;;;;5014393;28;20418;-63
2021/05/26 10:29:28;;;;;;;1.00;0.30;;;23.40;36.50;;;;;;5014279;28;20392;-63
2021/05/26 10:32:01;;;;;;;0.63;0.30;;;23.40;36.60;;;;;;5013534;28;20435;-63
2021/05/26 10:34:47;;;;;;;0.55;0.30;;;23.40;36.60;;;;;;5013635;28;20444;-63
2021/05/26 10:37:35;;;;;;;0.70;0.20;;;23.40;36.60;;;;;;5013330;28;20400;-63
2021/05/26 10:40:21;;;;;;;0.82;0.20;;;23.40;36.60;;;;;;5013308;28;20381;-62
2021/05/26 10:42:47;;;;;;;1.00;0.20;;;23.40;36.60;;;;;;5013750;28;20412;-62
2021/05/26 10:45:12;;;;;;;0.50;0.30;;;23.40;36.60;;;;;;5013983;28;20757;-63
2021/05/26 10:47:38;;;;;;;1.25;0.25;;;23.40;36.60;;;;;;5013442;28;20420;-63
2021/05/26 10:50:24;;;;;;;0.60;0.40;;;23.40;36.60;;;;;;5012940;28;20415;-63
2021/05/26 10:52:56;;;;;;;0.77;0.20;;;23.40;36.50;;;;;;5013760;28;20772;-63
2021/05/26 10:55:44;;;;;;;0.40;0.15;;;23.40;36.50;;;;;;5012604;28;20389;-63
2021/05/26 10:58:14;;;;;;;0.57;0.25;;;23.40;36.50;;;;;;5013754;28;20798;-60
2021/05/26 11:00:41;;;;;;;1.13;0.30;;;23.40;36.50;;;;;;5013689;28;20468;-63
2021/05/26 11:03:28;;;;;;;0.80;0.20;;;23.40;36.60;;;;;;5013527;28;20497;-63
2021/05/26 11:06:18;;;;;;;0.50;0.20;;;23.40;36.50;;;;;;5013075;28;20436;-63
2021/05/26 11:08:46;;;;;;;0.68;0.30;;;23.40;36.50;;;;;;5013615;28;20812;-62
2021/05/26 11:11:33;;;;;;;0.90;0.30;;;23.40;36.50;;;;;;5013481;28;20381;-64
2021/05/26 11:14:11;;;;;;;0.98;0.20;;;23.40;36.50;;;;;;5012946;28;20748;-63
2021/05/26 11:16:37;;;;;;;0.60;0.30;;;23.40;36.60;;;;;;5013410;28;20730;-64
2021/05/26 11:19:11;;;;;;;0.60;0.30;;;23.40;36.50;;;;;;5013303;28;20395;-63
2021/05/26 11:21:37;;;;;;;0.50;0.20;;;23.40;36.40;;;;;;5013503;28;20482;-63
2021/05/26 11:24:03;;;;;;;0.93;0.20;;;23.40;36.40;;;;;;5012789;28;20900;-64
2021/05/26 11:26:32;;;;;;;0.40;0.20;;;23.40;36.40;;;;;;5013378;28;20411;-63
2021/05/26 11:28:58;;;;;;;0.40;0.20;;;23.50;36.50;;;;;;5013139;28;20392;-63
2021/05/26 11:31:24;;;;;;;0.65;0.22;;;23.40;36.50;;;;;;5013015;28;20888;-63
2021/05/26 11:33:59;;;;;;;0.60;0.30;;;23.40;36.40;;;;;;5012572;28;20400;-63
2021/05/26 11:36:44;;;;;;;0.60;0.20;;;23.40;36.80;;;;;;5013010;28;20480;-62
2021/05/26 11:39:16;;;;;;;0.57;0.30;;;23.40;36.50;;;;;;5011574;28;20897;-63
2021/05/26 11:41:42;;;;;;;0.68;0.30;;;23.40;36.40;;;;;;5012935;28;20392;-63
2021/05/26 11:44:09;;;;;;;0.45;0.20;;;23.40;36.40;;;;;;5012122;28;20408;-62
2021/05/26 11:46:35;;;;;;;0.60;0.32;;;23.50;36.50;;;;;;5011470;28;20432;-63
2021/05/26 11:49:14;;;;;;;0.75;0.30;;;23.40;36.40;;;;;;5011621;28;20397;-62
2021/05/26 11:51:40;;;;;;;0.53;0.30;;;23.40;36.40;;;;;;5011325;28;20797;-60
2021/05/26 11:54:06;;;;;;;0.43;0.20;;;23.40;36.40;;;;;;5010832;28;20860;-60
2021/05/26 11:56:35;;;;;;;0.40;0.17;;;23.40;36.50;;;;;;5011370;28;20391;-62
2021/05/26 11:59:02;;;;;;;0.73;0.22;;;23.40;36.40;;;;;;5011350;28;20448;-58
2021/05/26 12:01:32;;;;;;;0.90;0.20;;;23.50;36.50;;;;;;5011297;28;20746;-62
2021/05/26 12:03:59;;;;;;;0.50;0.20;;;23.50;36.50;;;;;;5010922;28;20388;-61
2021/05/26 12:06:25;;;;;;;0.47;0.20;;;23.50;37.10;;;;;;5010838;28;20429;-62
2021/05/26 12:08:50;;;;;;;0.63;0.30;;;23.50;36.40;;;;;;5010992;28;20472;-62
2021/05/26 12:11:22;;;;;;;0.75;0.25;;;23.50;36.40;;;;;;5011053;28;20523;-62
2021/05/26 12:13:49;;;;;;;0.50;0.20;;;23.50;36.40;;;;;;5011026;28;20940;-63
2021/05/26 12:16:17;;;;;;;0.40;0.20;;;23.50;36.40;;;;;;5010872;28;20884;-62
2021/05/26 12:18:59;;;;;;;0.55;0.20;;;23.50;36.40;;;;;;5011040;28;20483;-63
2021/05/26 12:21:28;;;;;;;0.47;0.20;;;23.50;36.40;;;;;;5010947;28;20948;-63
2021/05/26 12:24:04;;;;;;;1.10;0.30;;;23.50;36.40;;;;;;5010381;28;20466;-62
2021/05/26 12:26:35;;;;;;;0.45;0.20;;;23.50;36.40;;;;;;5010955;28;20499;-63
2021/05/26 12:29:03;;;;;;;0.53;0.23;;;23.50;36.40;;;;;;5010695;28;20766;-63
2021/05/26 12:31:31;;;;;;;2.90;0.35;;;23.50;36.40;;;;;;5010710;28;20420;-63
2021/05/26 12:33:57;;;;;;;5.15;0.38;;;23.50;36.30;;;;;;5010203;28;20435;-62
2021/05/26 12:36:25;;;;;;;1.95;0.30;;;23.50;35.90;;;;;;5010691;28;20931;-64
2021/05/26 12:38:58;;;;;;;2.25;0.35;;;23.40;36.10;;;;;;5010575;28;20393;-62
2021/05/26 12:41:45;;;;;;;2.08;0.40;;;23.50;36.20;;;;;;5010659;28;20392;-62
2021/05/26 12:44:10;;;;;;;2.80;0.40;;;24.20;38.00;;;;;;5009918;28;20451;-63
2021/05/26 12:46:43;;;;;;;1.90;0.30;;;24.40;36.80;;;;;;5009185;28;20416;-62
2021/05/26 12:49:27;;;;;;;1.17;0.35;;;24.60;36.50;;;;;;5010413;28;20427;-61
2021/05/26 12:51:54;;;;;;;0.98;0.30;;;24.70;36.10;;;;;;5009748;28;20385;-62
2021/05/26 12:54:20;;;;;;;3.25;0.40;;;24.80;36.10;;;;;;5010308;28;20880;-61